createdAt,value
2023-02-22T00:02:11.083Z,28.70
2023-02-22T00:04:39.806Z,37.05
2023-02-22T00:07:07.612Z,36.90
2023-02-22T00:09:34.620Z,38.88
2023-02-22T00:12:01.570Z,35.35
2023-02-22T00:14:28.552Z,36.63
2023-02-22T00:16:59.438Z,31.48
2023-02-22T00:19:28.097Z,30.73
2023-02-22T00:21:55.352Z,32.78
2023-02-22T00:24:24.815Z,27.83
2023-02-22T00:26:55.832Z,39.45
2023-02-22T00:29:26.404Z,37.05
2023-02-22T00:31:54.017Z,35.15
2023-02-22T00:34:23.532Z,38.22
2023-02-22T00:36:50.714Z,40.85
2023-02-22T00:39:18.177Z,48.22
2023-02-22T00:41:45.594Z,47.38
2023-02-22T00:44:12.863Z,45.00
2023-02-22T00:46:40.104Z,50.13
2023-02-22T00:49:07.155Z,36.20
2023-02-22T00:51:34.097Z,43.33
2023-02-22T00:54:01.720Z,50.10
2023-02-22T00:56:29.076Z,49.15
2023-02-22T00:58:56.281Z,61.78
2023-02-22T01:01:24.299Z,64.25
2023-02-22T01:03:52.127Z,76.20
2023-02-22T01:06:20.393Z,61.88
2023-02-22T01:08:49.296Z,61.85
2023-02-22T01:11:18.425Z,68.95
2023-02-22T01:13:45.739Z,65.57
2023-02-22T01:16:13.768Z,64.32
2023-02-22T01:18:40.848Z,66.78
2023-02-22T01:21:08.576Z,71.18
2023-02-22T01:23:35.825Z,44.53
2023-02-22T01:26:06.046Z,84.32
2023-02-22T01:28:34.570Z,78.88
2023-02-22T01:31:03.234Z,79.10
2023-02-22T01:33:30.897Z,72.68
2023-02-22T01:35:58.006Z,72.72
2023-02-22T01:38:25.023Z,71.57
2023-02-22T01:40:52.263Z,73.65
2023-02-22T01:43:20.573Z,75.30
2023-02-22T01:46:27.501Z,70.03
2023-02-22T01:49:02.674Z,68.25
2023-02-22T01:51:37.847Z,62.55
2023-02-22T01:54:23.389Z,59.42
2023-02-22T01:57:14.783Z,52.78
2023-02-22T01:59:52.836Z,58.55
2023-02-22T02:02:21.705Z,56.03
2023-02-22T02:04:49.596Z,56.42
2023-02-22T02:07:21.186Z,62.80
2023-02-22T02:10:21.499Z,55.92
2023-02-22T02:12:51.196Z,50.30
2023-02-22T02:15:33.212Z,49.90
2023-02-22T02:18:08.052Z,53.42
2023-02-22T02:21:18.110Z,62.72
2023-02-22T02:24:21.808Z,54.05
2023-02-22T02:27:12.872Z,53.75
2023-02-22T02:30:20.201Z,42.15
2023-02-22T02:32:49.975Z,35.90
2023-02-22T02:35:35.821Z,42.20
2023-02-22T02:38:19.172Z,42.58
2023-02-22T02:40:55.750Z,46.75
2023-02-22T02:44:13.491Z,41.85
2023-02-22T02:47:15.158Z,39.50
2023-02-22T02:50:16.919Z,39.58
2023-02-22T02:52:45.751Z,39.75
2023-02-22T02:55:13.620Z,37.08
2023-02-22T02:57:41.984Z,41.50
2023-02-22T03:00:22.521Z,42.70
2023-02-22T03:03:34.074Z,36.03
2023-02-22T03:06:25.921Z,45.88
2023-02-22T03:09:18.480Z,39.45
2023-02-22T03:12:11.035Z,38.25
2023-02-22T03:14:55.922Z,45.97
2023-02-22T03:17:45.371Z,37.05
2023-02-22T03:20:43.170Z,38.15
2023-02-22T03:23:25.383Z,39.22
2023-02-22T03:26:04.432Z,40.20
2023-02-22T03:28:35.785Z,41.17
2023-02-22T03:31:18.351Z,42.83
2023-02-22T03:33:57.545Z,43.85
2023-02-22T03:36:39.013Z,43.58
2023-02-22T03:39:12.267Z,40.85
2023-02-22T03:41:40.691Z,38.33
2023-02-22T03:44:12.310Z,45.30
2023-02-22T03:46:41.180Z,42.42
2023-02-22T03:49:23.488Z,44.85
2023-02-22T03:51:50.807Z,51.20
2023-02-22T03:54:18.115Z,35.00
2023-02-22T03:56:56.440Z,40.13
2023-02-22T03:59:27.542Z,47.15
2023-02-22T04:01:55.667Z,44.55
2023-02-22T04:04:24.043Z,41.72
2023-02-22T04:06:52.321Z,49.70
2023-02-22T04:09:20.395Z,48.00
2023-02-22T04:11:47.868Z,43.45
2023-02-22T04:14:15.572Z,51.10
2023-02-22T04:16:42.855Z,51.35
2023-02-22T04:19:10.758Z,42.53
2023-02-22T04:21:39.037Z,41.78
2023-02-22T04:24:10.284Z,49.80
2023-02-22T04:26:37.821Z,53.75
2023-02-22T04:29:08.471Z,45.08
2023-02-22T04:31:39.089Z,50.25
2023-02-22T04:34:06.888Z,52.15
2023-02-22T04:36:37.588Z,54.25
2023-02-22T04:39:05.473Z,52.45
2023-02-22T04:41:34.662Z,47.22
2023-02-22T04:44:05.227Z,46.47
2023-02-22T04:46:32.804Z,54.80
2023-02-22T04:48:59.835Z,52.33
2023-02-22T04:51:30.338Z,50.50
2023-02-22T04:54:00.574Z,48.40
2023-02-22T04:56:28.039Z,46.47
2023-02-22T04:58:55.002Z,58.42
2023-02-22T05:01:23.610Z,50.35
2023-02-22T05:03:50.937Z,51.95
2023-02-22T05:06:18.824Z,49.95
2023-02-22T05:08:45.850Z,54.15
2023-02-22T05:11:12.907Z,56.17
2023-02-22T05:13:39.792Z,58.53
2023-02-22T05:16:07.152Z,55.28
2023-02-22T05:18:34.103Z,57.65
2023-02-22T05:21:01.321Z,58.30
2023-02-22T05:23:28.292Z,50.97
2023-02-22T05:25:55.179Z,53.63
2023-02-22T05:28:22.192Z,60.72
2023-02-22T05:30:49.121Z,57.42
2023-02-22T05:33:16.432Z,54.42
2023-02-22T05:35:43.988Z,59.97
2023-02-22T05:38:15.078Z,56.85
2023-02-22T05:40:43.311Z,68.18
2023-02-22T05:43:10.558Z,60.22
2023-02-22T05:45:37.449Z,70.03
2023-02-22T05:48:05.306Z,65.00
2023-02-22T05:50:33.374Z,75.75
2023-02-22T05:53:00.713Z,66.95
2023-02-22T05:55:28.068Z,70.22
2023-02-22T05:57:55.038Z,72.30
2023-02-22T06:00:26.889Z,56.03
2023-02-22T06:03:09.355Z,78.72
2023-02-22T06:05:37.167Z,71.78
2023-02-22T06:08:06.614Z,78.75
2023-02-22T06:10:33.720Z,69.95
2023-02-22T06:13:02.141Z,70.72
2023-02-22T06:15:30.079Z,76.63
2023-02-22T06:17:58.831Z,81.97
2023-02-22T06:20:28.037Z,95.70
2023-02-22T06:22:57.672Z,87.05
2023-02-22T06:25:28.599Z,86.70
2023-02-22T06:27:55.607Z,95.85
2023-02-22T06:30:25.557Z,90.78
2023-02-22T06:32:52.720Z,96.25
2023-02-22T06:35:20.627Z,87.32
2023-02-22T06:37:47.629Z,98.35
2023-02-22T06:40:16.392Z,98.97
2023-02-22T06:42:43.461Z,106.53
2023-02-22T06:45:11.441Z,105.07
2023-02-22T06:47:40.380Z,107.60
2023-02-22T06:50:10.454Z,93.15
2023-02-22T06:52:43.254Z,115.10
2023-02-22T06:55:11.557Z,107.13
2023-02-22T06:57:38.524Z,109.88
2023-02-22T07:00:06.117Z,125.32
2023-02-22T07:02:33.026Z,127.57
2023-02-22T07:04:59.997Z,113.28
2023-02-22T07:07:27.065Z,127.82
2023-02-22T07:09:54.048Z,108.68
2023-02-22T07:12:21.097Z,110.45
2023-02-22T07:14:48.029Z,133.65
2023-02-22T07:17:14.973Z,188.30
2023-02-22T07:19:41.962Z,141.82
2023-02-22T07:22:08.885Z,163.35
2023-02-22T07:24:35.771Z,184.18
2023-02-22T07:27:02.947Z,190.82
2023-02-22T07:29:31.516Z,160.77
2023-02-22T07:31:58.516Z,139.40
2023-02-22T07:34:25.476Z,77.82
2023-02-22T07:36:52.427Z,135.48
2023-02-22T07:39:19.582Z,111.88
2023-02-22T07:41:46.610Z,144.70
2023-02-22T07:44:23.708Z,119.35
2023-02-22T07:46:50.639Z,115.93
2023-02-22T07:49:18.164Z,156.98
2023-02-22T07:51:45.212Z,140.68
2023-02-22T07:54:12.288Z,110.68
2023-02-22T07:56:47.682Z,104.40
2023-02-22T07:59:16.123Z,124.32
2023-02-22T08:01:43.061Z,125.72
2023-02-22T08:04:10.086Z,118.43
2023-02-22T08:06:37.496Z,125.07
2023-02-22T08:09:04.570Z,106.97
2023-02-22T08:11:31.692Z,134.90
2023-02-22T08:13:58.701Z,97.10
2023-02-22T08:16:25.732Z,119.78
2023-02-22T08:18:52.726Z,131.02
2023-02-22T08:21:20.092Z,150.18
2023-02-22T08:23:54.366Z,105.78
2023-02-22T08:26:21.475Z,70.50
2023-02-22T08:28:49.510Z,110.78
2023-02-22T08:31:17.115Z,106.00
2023-02-22T08:33:48.976Z,103.88
2023-02-22T08:36:18.544Z,135.20
2023-02-22T08:38:45.615Z,132.50
2023-02-22T08:41:12.585Z,133.65
2023-02-22T08:43:39.591Z,109.50
2023-02-22T08:46:06.640Z,116.65
2023-02-22T08:48:33.759Z,122.05
2023-02-22T08:51:00.831Z,107.30
2023-02-22T08:53:27.793Z,121.95
2023-02-22T08:55:54.950Z,105.30
2023-02-22T08:58:22.024Z,97.65
2023-02-22T09:00:49.207Z,103.82
2023-02-22T09:03:16.256Z,101.97
2023-02-22T09:05:44.688Z,91.50
2023-02-22T09:08:11.961Z,81.95
2023-02-22T09:10:39.168Z,93.70
2023-02-22T09:13:06.594Z,96.55
2023-02-22T09:15:37.882Z,106.72
2023-02-22T09:18:10.801Z,91.95
2023-02-22T09:20:38.110Z,82.22
2023-02-22T09:23:07.446Z,87.00
2023-02-22T09:25:34.362Z,79.00
2023-02-22T09:28:01.890Z,90.10
2023-02-22T09:30:35.780Z,72.40
2023-02-22T09:33:15.364Z,70.35
2023-02-22T09:35:46.652Z,75.18
2023-02-22T09:38:22.902Z,71.13
2023-02-22T09:41:12.349Z,65.78
2023-02-22T09:43:56.520Z,65.45
2023-02-22T09:46:31.029Z,64.05
2023-02-22T09:49:27.954Z,67.38
2023-02-22T09:52:09.385Z,63.72
2023-02-22T09:55:16.124Z,70.65
2023-02-22T09:57:47.511Z,74.70
2023-02-22T10:00:20.811Z,70.30
2023-02-22T10:03:09.258Z,70.75
2023-02-22T10:05:41.949Z,64.38
2023-02-22T10:08:20.141Z,57.28
2023-02-22T10:10:55.685Z,60.00
2023-02-22T10:13:39.346Z,65.43
2023-02-22T10:16:13.349Z,56.30
2023-02-22T10:18:49.641Z,57.40
2023-02-22T10:21:42.733Z,56.47
2023-02-22T10:24:24.687Z,48.78
2023-02-22T10:26:54.279Z,52.47
2023-02-22T10:29:46.728Z,51.75
2023-02-22T10:32:31.657Z,51.20
2023-02-22T10:35:00.761Z,54.83
2023-02-22T10:37:34.362Z,48.65
2023-02-22T10:40:23.074Z,50.15
2023-02-22T10:42:50.600Z,47.10
2023-02-22T10:45:34.332Z,47.88
2023-02-22T10:48:08.621Z,44.92
2023-02-22T10:50:40.907Z,48.75
2023-02-22T10:53:09.838Z,50.58
2023-02-22T10:55:57.881Z,55.25
2023-02-22T10:58:24.916Z,49.25
2023-02-22T11:00:52.491Z,51.25
2023-02-22T11:03:23.438Z,52.85
2023-02-22T11:05:52.597Z,53.33
2023-02-22T11:08:22.554Z,58.05
2023-02-22T11:10:51.783Z,51.20
2023-02-22T11:13:38.957Z,50.45
2023-02-22T11:16:32.925Z,50.50
2023-02-22T11:19:24.534Z,47.67
2023-02-22T11:21:57.225Z,52.75
2023-02-22T11:24:30.426Z,55.88
2023-02-22T11:27:02.998Z,62.28
2023-02-22T11:29:36.451Z,53.17
2023-02-22T11:32:15.394Z,65.00
2023-02-22T11:34:43.041Z,63.67
2023-02-22T11:37:26.044Z,60.05
2023-02-22T11:40:21.949Z,61.72
2023-02-22T11:43:08.408Z,60.67
2023-02-22T11:45:35.317Z,59.97
2023-02-22T11:48:06.268Z,63.22
2023-02-22T11:51:03.810Z,63.63
2023-02-22T11:54:11.604Z,58.10
2023-02-22T11:56:52.201Z,61.47
2023-02-22T12:00:07.420Z,53.85
2023-02-22T12:03:40.339Z,57.45
2023-02-22T12:06:40.486Z,54.05
2023-02-22T12:09:45.911Z,46.65
2023-02-22T12:12:32.108Z,51.25
2023-02-22T12:18:07.943Z,37.58
2023-02-22T12:20:45.686Z,24.65
2023-02-22T12:23:15.748Z,34.67
2023-02-22T12:25:59.353Z,24.92
2023-02-22T12:28:36.149Z,25.52
2023-02-22T12:31:48.407Z,25.48
2023-02-22T12:34:33.870Z,35.28
2023-02-22T12:37:27.978Z,36.28
2023-02-22T12:40:23.436Z,26.08
2023-02-22T12:43:22.652Z,26.10
2023-02-22T12:46:11.915Z,25.15
2023-02-22T12:49:33.708Z,31.33
2023-02-22T12:52:25.113Z,24.23
2023-02-22T12:55:23.767Z,28.83
2023-02-22T12:58:20.532Z,33.97
2023-02-22T13:01:12.647Z,28.13
2023-02-22T13:03:44.107Z,23.40
2023-02-22T13:06:26.158Z,32.78
2023-02-22T13:08:58.453Z,27.17
2023-02-22T13:12:06.024Z,26.13
2023-02-22T13:15:17.214Z,28.48
2023-02-22T13:18:06.057Z,27.42
2023-02-22T13:20:48.932Z,26.40
2023-02-22T13:23:36.480Z,26.65
2023-02-22T13:26:08.212Z,24.00
2023-02-22T13:29:08.950Z,25.17
2023-02-22T13:31:51.139Z,26.35
2023-02-22T13:35:11.465Z,24.85
2023-02-22T13:37:50.571Z,33.92
2023-02-22T13:40:51.120Z,31.55
2023-02-22T13:43:48.713Z,22.90
2023-02-22T13:46:41.524Z,26.33
2023-02-22T13:49:25.327Z,29.33
2023-02-22T13:52:07.938Z,30.63
2023-02-22T13:54:54.612Z,30.45
2023-02-22T13:57:39.583Z,27.58
2023-02-22T14:00:15.662Z,26.90
2023-02-22T14:03:06.805Z,28.17
2023-02-22T14:05:40.950Z,31.95
2023-02-22T14:08:13.997Z,26.90
2023-02-22T14:10:43.890Z,27.15
2023-02-22T14:13:12.061Z,28.42
2023-02-22T14:15:57.797Z,28.58
2023-02-22T14:19:06.513Z,26.10
2023-02-22T14:21:35.233Z,26.15
2023-02-22T14:24:17.108Z,28.65
2023-02-22T14:26:59.775Z,31.42
2023-02-22T14:29:27.354Z,28.98
2023-02-22T14:32:07.442Z,27.70
2023-02-22T14:34:54.579Z,27.50
2023-02-22T14:37:39.938Z,29.73
2023-02-22T14:40:25.761Z,31.98
2023-02-22T14:43:19.877Z,30.90
2023-02-22T14:45:56.700Z,38.15
2023-02-22T14:48:39.533Z,31.02
2023-02-22T14:51:26.775Z,36.50
2023-02-22T14:54:02.826Z,31.48
2023-02-22T14:59:25.499Z,32.42
2023-02-22T15:02:11.652Z,34.75
2023-02-22T15:04:44.016Z,33.00
2023-02-22T15:07:29.071Z,34.58
2023-02-22T15:10:26.403Z,32.72
2023-02-22T15:13:09.562Z,31.45
2023-02-22T15:15:40.693Z,28.92
2023-02-22T15:18:19.646Z,28.90
2023-02-22T15:20:49.338Z,31.95
2023-02-22T15:23:16.842Z,34.00
2023-02-22T15:25:49.707Z,36.65
2023-02-22T15:28:18.930Z,29.98
2023-02-22T15:30:46.167Z,29.45
2023-02-22T15:33:24.425Z,32.70
2023-02-22T15:35:58.300Z,30.23
2023-02-22T15:38:30.849Z,29.38
2023-02-22T15:41:08.836Z,35.53
2023-02-22T15:43:35.860Z,37.08
2023-02-22T15:46:03.434Z,33.65
2023-02-22T15:48:31.922Z,37.65
2023-02-22T15:51:13.879Z,32.00
2023-02-22T15:53:43.794Z,32.42
2023-02-22T15:56:25.461Z,40.78
2023-02-22T15:59:00.070Z,33.85
2023-02-22T16:01:27.396Z,37.33
2023-02-22T16:03:59.724Z,37.25
2023-02-22T16:06:37.967Z,44.42
2023-02-22T16:09:25.582Z,42.13
2023-02-22T16:12:10.002Z,50.17
2023-02-22T16:14:37.296Z,44.88
2023-02-22T16:17:25.801Z,50.00
2023-02-22T16:19:53.785Z,41.75
2023-02-22T16:22:35.091Z,37.83
2023-02-22T16:25:35.708Z,32.30
2023-02-22T16:28:25.990Z,37.53
2023-02-22T16:30:59.675Z,41.30
2023-02-22T16:33:33.733Z,39.25
2023-02-22T16:36:06.309Z,40.55
2023-02-22T16:38:34.134Z,39.35
2023-02-22T16:41:01.201Z,40.78
2023-02-22T16:43:32.839Z,38.75
2023-02-22T16:46:06.812Z,43.08
2023-02-22T16:48:37.928Z,38.30
2023-02-22T16:51:26.070Z,36.72
2023-02-22T16:53:56.647Z,33.90
2023-02-22T16:56:30.909Z,33.58
2023-02-22T16:59:03.483Z,34.88
2023-02-22T17:01:30.571Z,32.38
2023-02-22T17:03:57.668Z,32.75
2023-02-22T17:06:24.618Z,31.98
2023-02-22T17:08:52.887Z,28.60
2023-02-22T17:11:19.946Z,29.38
2023-02-22T17:13:51.713Z,29.50
2023-02-22T17:16:19.250Z,31.15
2023-02-22T17:18:46.503Z,29.33
2023-02-22T17:21:13.726Z,31.42
2023-02-22T17:23:40.685Z,30.98
2023-02-22T17:26:07.665Z,34.38
2023-02-22T17:28:34.631Z,30.95
2023-02-22T17:31:02.285Z,32.47
2023-02-22T17:33:36.606Z,27.02
2023-02-22T17:36:05.402Z,35.75
2023-02-22T17:38:32.733Z,28.02
2023-02-22T17:41:01.445Z,27.30
2023-02-22T17:43:29.616Z,39.47
2023-02-22T17:45:57.048Z,33.35
2023-02-22T17:48:24.611Z,35.70
2023-02-22T17:50:53.294Z,33.33
2023-02-22T17:53:24.699Z,33.92
2023-02-22T17:55:52.552Z,33.20
2023-02-22T17:58:19.932Z,33.53
2023-02-22T18:00:50.309Z,31.20
2023-02-22T18:03:25.866Z,36.17
2023-02-22T18:08:25.481Z,34.78
2023-02-22T18:10:56.536Z,34.72
2023-02-22T18:13:27.439Z,28.60
2023-02-22T18:16:00.314Z,30.88
2023-02-22T18:18:27.698Z,31.38
2023-02-22T18:20:59.675Z,29.17
2023-02-22T18:23:29.843Z,30.25
2023-02-22T18:26:10.091Z,30.83
2023-02-22T18:28:37.838Z,27.83
2023-02-22T18:31:17.067Z,38.08
2023-02-22T18:33:46.786Z,33.67
2023-02-22T18:36:16.216Z,30.60
2023-02-22T18:38:44.557Z,28.10
2023-02-22T18:41:18.330Z,33.47
2023-02-22T18:43:46.753Z,34.85
2023-02-22T18:46:21.752Z,31.08
2023-02-22T18:48:55.459Z,32.88
2023-02-22T18:51:23.608Z,36.72
2023-02-22T18:53:54.946Z,35.22
2023-02-22T18:56:22.656Z,34.25
2023-02-22T18:59:02.053Z,41.78
2023-02-22T19:01:31.563Z,41.40
2023-02-22T19:04:00.384Z,37.22
2023-02-22T19:06:27.296Z,35.53
2023-02-22T19:08:54.300Z,35.47
2023-02-22T19:11:24.052Z,39.00
2023-02-22T19:13:54.579Z,33.85
2023-02-22T19:16:24.075Z,34.88
2023-02-22T19:18:57.227Z,35.13
2023-02-22T19:21:27.256Z,34.65
2023-02-22T19:26:29.175Z,34.20
2023-02-22T19:28:58.707Z,40.53
2023-02-22T19:31:31.320Z,40.83
2023-02-22T19:34:05.482Z,45.80
2023-02-22T19:36:32.832Z,51.28
2023-02-22T19:39:02.709Z,48.25
2023-02-22T19:41:30.468Z,55.47
2023-02-22T19:43:58.293Z,55.08
2023-02-22T19:46:25.325Z,50.75
2023-02-22T19:48:53.644Z,52.42
2023-02-22T19:51:26.107Z,58.15
2023-02-22T19:53:56.995Z,47.95
2023-02-22T19:56:27.331Z,54.85
2023-02-22T19:58:57.124Z,59.25
2023-02-22T20:01:33.131Z,57.35
2023-02-22T20:04:07.128Z,58.90
2023-02-22T20:06:41.646Z,64.72
2023-02-22T20:09:15.343Z,59.13
2023-02-22T20:11:42.641Z,61.70
2023-02-22T20:14:17.321Z,62.05
2023-02-22T20:16:44.550Z,60.72
2023-02-22T20:19:13.707Z,64.68
2023-02-22T20:21:40.864Z,62.75
2023-02-22T20:24:12.055Z,58.63
2023-02-22T20:26:40.175Z,63.33
2023-02-22T20:29:09.213Z,63.97
2023-02-22T20:31:38.025Z,60.33
2023-02-22T20:34:09.714Z,64.82
2023-02-22T20:36:39.537Z,64.07
2023-02-22T20:39:13.427Z,66.97
2023-02-22T20:41:46.140Z,68.53
2023-02-22T20:44:17.644Z,71.05
2023-02-22T20:46:46.286Z,70.78
2023-02-22T20:49:17.546Z,69.95
2023-02-22T20:51:46.188Z,65.65
2023-02-22T20:54:13.564Z,67.07
2023-02-22T20:56:43.598Z,71.82
2023-02-22T20:59:14.172Z,64.50
2023-02-22T21:01:42.232Z,68.85
2023-02-22T21:04:11.176Z,75.13
2023-02-22T21:06:39.656Z,66.53
2023-02-22T21:09:12.315Z,67.75
2023-02-22T21:11:40.158Z,69.13
2023-02-22T21:14:07.403Z,68.53
2023-02-22T21:16:36.990Z,71.78
2023-02-22T21:19:07.939Z,76.30
2023-02-22T21:21:35.710Z,72.05
2023-02-22T21:24:03.283Z,79.00
2023-02-22T21:26:33.765Z,73.85
2023-02-22T21:29:06.132Z,70.70
2023-02-22T21:31:36.741Z,77.82
2023-02-22T21:34:04.332Z,78.03
2023-02-22T21:36:32.191Z,71.00
2023-02-22T21:39:08.296Z,81.47
2023-02-22T21:41:39.203Z,76.00
2023-02-22T21:44:09.978Z,78.80
2023-02-22T21:46:37.240Z,79.20
2023-02-22T21:49:04.517Z,84.40
2023-02-22T21:51:33.244Z,83.45
2023-02-22T21:54:07.434Z,75.10
2023-02-22T21:56:39.807Z,83.18
2023-02-22T21:59:14.240Z,81.18
2023-02-22T22:01:49.857Z,81.63
2023-02-22T22:06:52.509Z,83.03
2023-02-22T22:09:21.966Z,75.10
2023-02-22T22:12:01.518Z,78.32
2023-02-22T22:14:28.742Z,88.32
2023-02-22T22:17:01.589Z,82.30
2023-02-22T22:19:31.291Z,87.38
2023-02-22T22:21:58.670Z,81.07
2023-02-22T22:24:28.739Z,76.55
2023-02-22T22:26:56.106Z,85.53
2023-02-22T22:29:28.550Z,80.50
2023-02-22T22:31:56.552Z,78.25
2023-02-22T22:34:29.638Z,79.57
2023-02-22T22:37:00.533Z,91.75
2023-02-22T22:39:27.744Z,89.70
2023-02-22T22:41:54.839Z,72.85
2023-02-22T22:44:24.616Z,78.28
2023-02-22T22:46:54.768Z,79.45
2023-02-22T22:49:23.717Z,85.53
2023-02-22T22:51:51.206Z,77.82
2023-02-22T22:54:18.654Z,85.13
2023-02-22T22:56:46.541Z,84.20
2023-02-22T22:59:13.670Z,84.18
2023-02-22T23:01:44.532Z,90.53
2023-02-22T23:04:17.032Z,87.65
2023-02-22T23:06:52.484Z,94.03
2023-02-22T23:09:29.673Z,81.93
2023-02-22T23:12:09.034Z,91.28
2023-02-22T23:14:44.025Z,80.20
2023-02-22T23:17:31.123Z,87.77
2023-02-22T23:19:58.667Z,85.05
2023-02-22T23:22:27.417Z,85.40
2023-02-22T23:24:54.591Z,79.93
2023-02-22T23:27:23.736Z,80.53
2023-02-22T23:29:50.738Z,78.32
2023-02-22T23:32:17.799Z,79.82
2023-02-22T23:34:44.912Z,90.50
2023-02-22T23:37:14.031Z,77.82
2023-02-22T23:39:41.200Z,78.40
2023-02-22T23:42:10.981Z,78.47
2023-02-22T23:44:39.920Z,77.65
2023-02-22T23:47:07.348Z,80.35
2023-02-22T23:49:38.325Z,85.32
2023-02-22T23:52:08.304Z,77.47
2023-02-22T23:54:36.899Z,83.20
2023-02-22T23:57:05.317Z,92.35
2023-02-22T23:59:33.807Z,87.85
